sensor_id;sensor_type;location;lat;lon;timestamp;temperature;humidity
15638;DHT22;26604;53.596;10.042;2022-12-18T00:02:02;18.90;99.90
15638;DHT22;26604;53.596;10.042;2022-12-18T00:04:30;18.90;99.90
15638;DHT22;26604;53.596;10.042;2022-12-18T00:06:57;18.90;99.90
15638;DHT22;26604;53.596;10.042;2022-12-18T00:09:24;18.90;99.90
15638;DHT22;26604;53.596;10.042;2022-12-18T00:11:51;18.90;99.90
15638;DHT22;26604;53.596;10.042;2022-12-18T00:14:18;18.90;99.90
15638;DHT22;26604;53.596;10.042;2022-12-18T00:16:45;19.00;99.90
15638;DHT22;26604;53.596;10.042;2022-12-18T00:19:13;19.00;99.90
15638;DHT22;26604;53.596;10.042;2022-12-18T00:21:42;19.00;99.90
15638;DHT22;26604;53.596;10.042;2022-12-18T00:24:10;19.00;99.90
15638;DHT22;26604;53.596;10.042;2022-12-18T00:26:38;19.10;99.90
15638;DHT22;26604;53.596;10.042;2022-12-18T00:29:07;19.00;99.90
15638;DHT22;26604;53.596;10.042;2022-12-18T00:31:35;19.10;99.90
15638;DHT22;26604;53.596;10.042;2022-12-18T00:34:02;19.10;99.90
15638;DHT22;26604;53.596;10.042;2022-12-18T00:36:31;19.10;99.90
15638;DHT22;26604;53.596;10.042;2022-12-18T00:39:02;19.10;99.90
15638;DHT22;26604;53.596;10.042;2022-12-18T00:41:29;19.10;99.90
15638;DHT22;26604;53.596;10.042;2022-12-18T00:44:15;19.10;99.90
15638;DHT22;26604;53.596;10.042;2022-12-18T00:46:42;19.10;99.90
15638;DHT22;26604;53.596;10.042;2022-12-18T00:49:10;19.10;99.90
15638;DHT22;26604;53.596;10.042;2022-12-18T00:51:37;19.20;99.90
15638;DHT22;26604;53.596;10.042;2022-12-18T00:54:05;19.10;99.90
15638;DHT22;26604;53.596;10.042;2022-12-18T00:56:32;19.10;99.90
15638;DHT22;26604;53.596;10.042;2022-12-18T00:58:59;19.10;99.90
15638;DHT22;26604;53.596;10.042;2022-12-18T01:01:25;19.10;99.90
15638;DHT22;26604;53.596;10.042;2022-12-18T01:03:52;19.10;99.90
15638;DHT22;26604;53.596;10.042;2022-12-18T01:06:19;19.10;99.90
15638;DHT22;26604;53.596;10.042;2022-12-18T01:08:46;19.10;99.90
15638;DHT22;26604;53.596;10.042;2022-12-18T01:11:16;19.10;99.90
15638;DHT22;26604;53.596;10.042;2022-12-18T01:13:43;19.10;99.90
15638;DHT22;26604;53.596;10.042;2022-12-18T01:16:11;19.10;99.90
15638;DHT22;26604;53.596;10.042;2022-12-18T01:18:39;19.10;99.90
15638;DHT22;26604;53.596;10.042;2022-12-18T01:21:07;19.10;99.90
15638;DHT22;26604;53.596;10.042;2022-12-18T01:23:34;19.10;99.90
15638;DHT22;26604;53.596;10.042;2022-12-18T01:26:05;19.10;99.90
15638;DHT22;26604;53.596;10.042;2022-12-18T01:28:33;19.10;99.90
15638;DHT22;26604;53.596;10.042;2022-12-18T01:31:10;19.10;99.90
15638;DHT22;26604;53.596;10.042;2022-12-18T01:33:37;19.10;99.90
15638;DHT22;26604;53.596;10.042;2022-12-18T01:36:04;19.10;99.90
15638;DHT22;26604;53.596;10.042;2022-12-18T01:38:31;19.10;99.90
15638;DHT22;26604;53.596;10.042;2022-12-18T01:40:58;19.10;99.90
15638;DHT22;26604;53.596;10.042;2022-12-18T01:43:42;19.10;99.90
15638;DHT22;26604;53.596;10.042;2022-12-18T01:46:10;19.10;99.90
15638;DHT22;26604;53.596;10.042;2022-12-18T01:48:37;19.10;99.90
15638;DHT22;26604;53.596;10.042;2022-12-18T01:51:06;19.10;99.90
15638;DHT22;26604;53.596;10.042;2022-12-18T01:53:33;19.10;99.90
15638;DHT22;26604;53.596;10.042;2022-12-18T01:56:00;19.10;99.80
15638;DHT22;26604;53.596;10.042;2022-12-18T01:58:30;19.10;99.70
15638;DHT22;26604;53.596;10.042;2022-12-18T02:01:00;19.10;99.40
15638;DHT22;26604;53.596;10.042;2022-12-18T02:03:27;19.20;99.20
15638;DHT22;26604;53.596;10.042;2022-12-18T02:06:00;19.30;98.90
15638;DHT22;26604;53.596;10.042;2022-12-18T02:08:34;19.40;98.60
15638;DHT22;26604;53.596;10.042;2022-12-18T02:11:06;19.50;98.20
15638;DHT22;26604;53.596;10.042;2022-12-18T02:13:42;19.60;97.90
15638;DHT22;26604;53.596;10.042;2022-12-18T02:16:18;19.60;98.00
15638;DHT22;26604;53.596;10.042;2022-12-18T02:18:49;19.60;97.60
15638;DHT22;26604;53.596;10.042;2022-12-18T02:21:24;19.60;97.70
15638;DHT22;26604;53.596;10.042;2022-12-18T02:23:56;19.60;97.30
15638;DHT22;26604;53.596;10.042;2022-12-18T02:26:28;19.60;97.30
15638;DHT22;26604;53.596;10.042;2022-12-18T02:29:00;19.50;97.20
15638;DHT22;26604;53.596;10.042;2022-12-18T02:31:31;19.50;97.20
15638;DHT22;26604;53.596;10.042;2022-12-18T02:34:04;19.50;97.20
15638;DHT22;26604;53.596;10.042;2022-12-18T02:36:32;19.40;97.10
15638;DHT22;26604;53.596;10.042;2022-12-18T02:39:01;19.40;97.10
15638;DHT22;26604;53.596;10.042;2022-12-18T02:41:30;19.30;97.10
15638;DHT22;26604;53.596;10.042;2022-12-18T02:43:59;19.30;97.10
15638;DHT22;26604;53.596;10.042;2022-12-18T02:46:31;19.20;97.10
15638;DHT22;26604;53.596;10.042;2022-12-18T02:49:05;19.20;97.10
15638;DHT22;26604;53.596;10.042;2022-12-18T02:51:39;19.20;97.10
15638;DHT22;26604;53.596;10.042;2022-12-18T02:54:13;19.10;97.10
15638;DHT22;26604;53.596;10.042;2022-12-18T02:56:49;19.10;97.20
15638;DHT22;26604;53.596;10.042;2022-12-18T02:59:19;19.00;97.10
15638;DHT22;26604;53.596;10.042;2022-12-18T03:01:51;19.00;97.10
15638;DHT22;26604;53.596;10.042;2022-12-18T03:04:23;19.00;97.00
15638;DHT22;26604;53.596;10.042;2022-12-18T03:06:55;18.90;96.90
15638;DHT22;26604;53.596;10.042;2022-12-18T03:09:27;18.90;97.10
15638;DHT22;26604;53.596;10.042;2022-12-18T03:12:04;18.90;96.80
15638;DHT22;26604;53.596;10.042;2022-12-18T03:14:53;18.90;96.70
15638;DHT22;26604;53.596;10.042;2022-12-18T03:17:22;18.90;96.60
15638;DHT22;26604;53.596;10.042;2022-12-18T03:19:51;18.90;96.60
15638;DHT22;26604;53.596;10.042;2022-12-18T03:22:20;18.90;96.50
15638;DHT22;26604;53.596;10.042;2022-12-18T03:24:49;18.90;96.50
15638;DHT22;26604;53.596;10.042;2022-12-18T03:27:20;19.00;96.30
15638;DHT22;26604;53.596;10.042;2022-12-18T03:29:51;19.20;96.00
15638;DHT22;26604;53.596;10.042;2022-12-18T03:32:24;19.30;95.70
15638;DHT22;26604;53.596;10.042;2022-12-18T03:34:54;19.40;95.30
15638;DHT22;26604;53.596;10.042;2022-12-18T03:37:21;19.50;95.00
15638;DHT22;26604;53.596;10.042;2022-12-18T03:39:48;19.60;94.70
15638;DHT22;26604;53.596;10.042;2022-12-18T03:42:23;19.60;94.60
15638;DHT22;26604;53.596;10.042;2022-12-18T03:44:57;19.60;94.80
15638;DHT22;26604;53.596;10.042;2022-12-18T03:47:29;19.60;94.50
15638;DHT22;26604;53.596;10.042;2022-12-18T03:50:02;19.60;94.50
15638;DHT22;26604;53.596;10.042;2022-12-18T03:52:33;19.60;94.80
15638;DHT22;26604;53.596;10.042;2022-12-18T03:55:03;19.50;94.80
15638;DHT22;26604;53.596;10.042;2022-12-18T03:57:33;19.40;94.50
15638;DHT22;26604;53.596;10.042;2022-12-18T04:00:04;19.40;94.50
15638;DHT22;26604;53.596;10.042;2022-12-18T04:02:32;19.40;94.50
15638;DHT22;26604;53.596;10.042;2022-12-18T04:05:03;19.30;94.60
15638;DHT22;26604;53.596;10.042;2022-12-18T04:07:31;19.20;94.60
15638;DHT22;26604;53.596;10.042;2022-12-18T04:10:00;19.20;94.70
15638;DHT22;26604;53.596;10.042;2022-12-18T04:12:29;19.10;94.70
15638;DHT22;26604;53.596;10.042;2022-12-18T04:14:57;19.10;94.80
15638;DHT22;26604;53.596;10.042;2022-12-18T04:17:24;19.00;94.80
15638;DHT22;26604;53.596;10.042;2022-12-18T04:19:51;18.90;94.90
15638;DHT22;26604;53.596;10.042;2022-12-18T04:22:18;18.90;94.90
15638;DHT22;26604;53.596;10.042;2022-12-18T04:24:45;18.90;94.90
15638;DHT22;26604;53.596;10.042;2022-12-18T04:27:12;18.80;95.00
15638;DHT22;26604;53.596;10.042;2022-12-18T04:29:39;18.80;95.30
15638;DHT22;26604;53.596;10.042;2022-12-18T04:32:07;18.80;95.00
15638;DHT22;26604;53.596;10.042;2022-12-18T04:34:34;18.70;95.00
15638;DHT22;26604;53.596;10.042;2022-12-18T04:37:01;18.70;95.00
15638;DHT22;26604;53.596;10.042;2022-12-18T04:39:28;18.80;95.10
15638;DHT22;26604;53.596;10.042;2022-12-18T04:41:55;18.70;95.00
15638;DHT22;26604;53.596;10.042;2022-12-18T04:44:22;18.70;95.00
15638;DHT22;26604;53.596;10.042;2022-12-18T04:46:49;18.70;95.00
15638;DHT22;26604;53.596;10.042;2022-12-18T04:49:17;18.70;94.90
15638;DHT22;26604;53.596;10.042;2022-12-18T04:51:44;18.70;94.90
15638;DHT22;26604;53.596;10.042;2022-12-18T04:54:11;18.70;94.80
15638;DHT22;26604;53.596;10.042;2022-12-18T04:56:38;18.70;94.80
15638;DHT22;26604;53.596;10.042;2022-12-18T04:59:05;18.80;94.70
15638;DHT22;26604;53.596;10.042;2022-12-18T05:01:34;18.90;94.50
15638;DHT22;26604;53.596;10.042;2022-12-18T05:04:02;19.00;94.20
15638;DHT22;26604;53.596;10.042;2022-12-18T05:06:30;19.10;93.90
15638;DHT22;26604;53.596;10.042;2022-12-18T05:08:57;19.30;93.50
15638;DHT22;26604;53.596;10.042;2022-12-18T05:11:24;19.40;93.20
15638;DHT22;26604;53.596;10.042;2022-12-18T05:13:51;19.40;93.00
15638;DHT22;26604;53.596;10.042;2022-12-18T05:16:17;19.50;92.90
15638;DHT22;26604;53.596;10.042;2022-12-18T05:18:44;19.50;93.00
15638;DHT22;26604;53.596;10.042;2022-12-18T05:21:11;19.50;92.60
15638;DHT22;26604;53.596;10.042;2022-12-18T05:23:39;19.40;92.50
15638;DHT22;26604;53.596;10.042;2022-12-18T05:26:07;19.40;92.50
15638;DHT22;26604;53.596;10.042;2022-12-18T05:28:35;19.40;92.50
15638;DHT22;26604;53.596;10.042;2022-12-18T05:31:03;19.30;92.50
15638;DHT22;26604;53.596;10.042;2022-12-18T05:33:32;19.30;92.50
15638;DHT22;26604;53.596;10.042;2022-12-18T05:36:04;19.20;92.80
15638;DHT22;26604;53.596;10.042;2022-12-18T05:38:33;19.10;92.60
15638;DHT22;26604;53.596;10.042;2022-12-18T05:41:02;19.10;92.60
15638;DHT22;26604;53.596;10.042;2022-12-18T05:43:29;19.00;92.40
15638;DHT22;26604;53.596;10.042;2022-12-18T05:45:56;19.00;92.40
15638;DHT22;26604;53.596;10.042;2022-12-18T05:48:23;18.90;92.40
15638;DHT22;26604;53.596;10.042;2022-12-18T05:50:51;18.90;92.70
15638;DHT22;26604;53.596;10.042;2022-12-18T05:53:19;18.80;92.40
15638;DHT22;26604;53.596;10.042;2022-12-18T05:55:46;18.70;92.30
15638;DHT22;26604;53.596;10.042;2022-12-18T05:58:15;18.70;92.30
15638;DHT22;26604;53.596;10.042;2022-12-18T06:00:43;18.70;92.40
15638;DHT22;26604;53.596;10.042;2022-12-18T06:03:11;18.60;92.40
15638;DHT22;26604;53.596;10.042;2022-12-18T06:05:40;18.60;92.80
15638;DHT22;26604;53.596;10.042;2022-12-18T06:08:08;18.60;92.90
15638;DHT22;26604;53.596;10.042;2022-12-18T06:10:35;18.50;93.10
15638;DHT22;26604;53.596;10.042;2022-12-18T06:13:02;18.50;93.40
15638;DHT22;26604;53.596;10.042;2022-12-18T06:15:30;18.50;93.70
15638;DHT22;26604;53.596;10.042;2022-12-18T06:17:57;18.50;93.90
15638;DHT22;26604;53.596;10.042;2022-12-18T06:20:24;18.50;94.40
15638;DHT22;26604;53.596;10.042;2022-12-18T06:22:51;18.50;94.80
15638;DHT22;26604;53.596;10.042;2022-12-18T06:25:18;18.50;95.50
15638;DHT22;26604;53.596;10.042;2022-12-18T06:27:47;18.50;95.60
15638;DHT22;26604;53.596;10.042;2022-12-18T06:30:14;18.60;95.90
15638;DHT22;26604;53.596;10.042;2022-12-18T06:32:42;18.70;95.80
15638;DHT22;26604;53.596;10.042;2022-12-18T06:35:10;18.90;95.60
15638;DHT22;26604;53.596;10.042;2022-12-18T06:37:36;19.10;95.60
15638;DHT22;26604;53.596;10.042;2022-12-18T06:40:04;19.30;95.00
15638;DHT22;26604;53.596;10.042;2022-12-18T06:42:31;19.40;94.80
15638;DHT22;26604;53.596;10.042;2022-12-18T06:44:58;19.40;95.20
15638;DHT22;26604;53.596;10.042;2022-12-18T06:47:25;19.50;95.10
15638;DHT22;26604;53.596;10.042;2022-12-18T06:49:53;19.50;95.20
15638;DHT22;26604;53.596;10.042;2022-12-18T06:52:20;19.50;95.40
15638;DHT22;26604;53.596;10.042;2022-12-18T06:54:47;19.50;95.60
15638;DHT22;26604;53.596;10.042;2022-12-18T06:57:14;19.40;95.70
15638;DHT22;26604;53.596;10.042;2022-12-18T06:59:40;19.40;95.90
15638;DHT22;26604;53.596;10.042;2022-12-18T07:02:10;19.30;96.00
15638;DHT22;26604;53.596;10.042;2022-12-18T07:04:37;19.30;96.20
15638;DHT22;26604;53.596;10.042;2022-12-18T07:07:06;19.20;96.40
15638;DHT22;26604;53.596;10.042;2022-12-18T07:09:33;19.20;96.60
15638;DHT22;26604;53.596;10.042;2022-12-18T07:11:59;19.10;96.70
15638;DHT22;26604;53.596;10.042;2022-12-18T07:14:26;19.10;96.90
15638;DHT22;26604;53.596;10.042;2022-12-18T07:16:54;19.00;97.10
15638;DHT22;26604;53.596;10.042;2022-12-18T07:19:23;18.90;97.50
15638;DHT22;26604;53.596;10.042;2022-12-18T07:21:50;18.90;97.70
15638;DHT22;26604;53.596;10.042;2022-12-18T07:24:18;18.90;97.50
15638;DHT22;26604;53.596;10.042;2022-12-18T07:26:45;18.80;97.70
15638;DHT22;26604;53.596;10.042;2022-12-18T07:29:12;18.80;97.80
15638;DHT22;26604;53.596;10.042;2022-12-18T07:31:39;18.70;97.90
15638;DHT22;26604;53.596;10.042;2022-12-18T07:34:10;18.70;97.90
15638;DHT22;26604;53.596;10.042;2022-12-18T07:36:37;18.70;98.20
15638;DHT22;26604;53.596;10.042;2022-12-18T07:39:04;18.70;98.40
15638;DHT22;26604;53.596;10.042;2022-12-18T07:41:32;18.70;98.60
15638;DHT22;26604;53.596;10.042;2022-12-18T07:43:59;18.70;98.70
15638;DHT22;26604;53.596;10.042;2022-12-18T07:46:26;18.60;98.70
15638;DHT22;26604;53.596;10.042;2022-12-18T07:48:53;18.70;98.80
15638;DHT22;26604;53.596;10.042;2022-12-18T07:51:19;18.60;98.80
15638;DHT22;26604;53.596;10.042;2022-12-18T07:53:46;18.60;98.80
15638;DHT22;26604;53.596;10.042;2022-12-18T07:56:13;18.60;98.90
15638;DHT22;26604;53.596;10.042;2022-12-18T07:58:42;18.70;99.40
15638;DHT22;26604;53.596;10.042;2022-12-18T08:01:11;19.00;99.80
15638;DHT22;26604;53.596;10.042;2022-12-18T08:03:39;19.50;98.90
15638;DHT22;26604;53.596;10.042;2022-12-18T08:06:08;20.00;97.90
15638;DHT22;26604;53.596;10.042;2022-12-18T08:08:36;20.50;96.90
15638;DHT22;26604;53.596;10.042;2022-12-18T08:11:03;21.00;95.90
15638;DHT22;26604;53.596;10.042;2022-12-18T08:13:30;21.40;95.00
15638;DHT22;26604;53.596;10.042;2022-12-18T08:16:00;21.80;94.10
15638;DHT22;26604;53.596;10.042;2022-12-18T08:18:27;22.10;93.70
15638;DHT22;26604;53.596;10.042;2022-12-18T08:20:55;22.40;92.70
15638;DHT22;26604;53.596;10.042;2022-12-18T08:23:22;22.70;92.20
15638;DHT22;26604;53.596;10.042;2022-12-18T08:25:49;22.80;91.70
15638;DHT22;26604;53.596;10.042;2022-12-18T08:28:16;23.00;91.40
15638;DHT22;26604;53.596;10.042;2022-12-18T08:30:43;23.10;91.10
15638;DHT22;26604;53.596;10.042;2022-12-18T08:33:11;23.10;91.00
15638;DHT22;26604;53.596;10.042;2022-12-18T08:35:38;23.00;91.00
15638;DHT22;26604;53.596;10.042;2022-12-18T08:38:05;22.90;91.00
15638;DHT22;26604;53.596;10.042;2022-12-18T08:40:32;22.80;91.20
15638;DHT22;26604;53.596;10.042;2022-12-18T08:42:59;22.60;91.50
15638;DHT22;26604;53.596;10.042;2022-12-18T08:45:43;22.40;91.80
15638;DHT22;26604;53.596;10.042;2022-12-18T08:48:11;22.20;92.10
15638;DHT22;26604;53.596;10.042;2022-12-18T08:50:38;22.00;92.50
15638;DHT22;26604;53.596;10.042;2022-12-18T08:53:05;21.80;92.80
15638;DHT22;26604;53.596;10.042;2022-12-18T08:55:32;21.60;93.10
15638;DHT22;26604;53.596;10.042;2022-12-18T08:57:59;21.50;93.40
15638;DHT22;26604;53.596;10.042;2022-12-18T09:00:26;21.30;93.50
15638;DHT22;26604;53.596;10.042;2022-12-18T09:02:52;21.10;93.50
15638;DHT22;26604;53.596;10.042;2022-12-18T09:05:21;20.90;93.80
15638;DHT22;26604;53.596;10.042;2022-12-18T09:07:48;20.70;94.10
15638;DHT22;26604;53.596;10.042;2022-12-18T09:10:15;20.60;94.50
15638;DHT22;26604;53.596;10.042;2022-12-18T09:12:41;20.50;95.00
15638;DHT22;26604;53.596;10.042;2022-12-18T09:15:09;20.30;95.50
15638;DHT22;26604;53.596;10.042;2022-12-18T09:17:37;20.20;96.00
15638;DHT22;26604;53.596;10.042;2022-12-18T09:20:04;20.20;96.50
15638;DHT22;26604;53.596;10.042;2022-12-18T09:22:33;20.10;96.90
15638;DHT22;26604;53.596;10.042;2022-12-18T09:24:59;20.00;97.10
15638;DHT22;26604;53.596;10.042;2022-12-18T09:27:26;20.00;97.60
15638;DHT22;26604;53.596;10.042;2022-12-18T09:29:53;19.90;97.80
15638;DHT22;26604;53.596;10.042;2022-12-18T09:32:20;19.80;97.90
15638;DHT22;26604;53.596;10.042;2022-12-18T09:34:47;19.80;98.00
15638;DHT22;26604;53.596;10.042;2022-12-18T09:37:14;19.70;98.10
15638;DHT22;26604;53.596;10.042;2022-12-18T09:39:42;19.60;98.30
15638;DHT22;26604;53.596;10.042;2022-12-18T09:42:17;19.60;98.80
15638;DHT22;26604;53.596;10.042;2022-12-18T09:44:49;19.60;99.00
15638;DHT22;26604;53.596;10.042;2022-12-18T09:47:19;19.70;98.60
15638;DHT22;26604;53.596;10.042;2022-12-18T09:49:52;19.90;97.90
15638;DHT22;26604;53.596;10.042;2022-12-18T09:52:25;20.00;97.70
15638;DHT22;26604;53.596;10.042;2022-12-18T09:54:57;20.10;97.30
15638;DHT22;26604;53.596;10.042;2022-12-18T09:57:25;20.20;97.00
15638;DHT22;26604;53.596;10.042;2022-12-18T09:59:56;20.20;96.90
15638;DHT22;26604;53.596;10.042;2022-12-18T10:02:26;20.20;96.70
15638;DHT22;26604;53.596;10.042;2022-12-18T10:05:03;20.20;96.80
15638;DHT22;26604;53.596;10.042;2022-12-18T10:07:39;20.20;97.00
15638;DHT22;26604;53.596;10.042;2022-12-18T10:10:18;20.10;97.40
15638;DHT22;26604;53.596;10.042;2022-12-18T10:12:55;20.00;97.30
15638;DHT22;26604;53.596;10.042;2022-12-18T10:15:27;20.00;97.90
15638;DHT22;26604;53.596;10.042;2022-12-18T10:18:02;19.90;97.80
15638;DHT22;26604;53.596;10.042;2022-12-18T10:20:33;19.90;97.10
15638;DHT22;26604;53.596;10.042;2022-12-18T10:23:08;19.80;97.30
15638;DHT22;26604;53.596;10.042;2022-12-18T10:25:42;19.80;97.70
15638;DHT22;26604;53.596;10.042;2022-12-18T10:28:13;20.00;97.40
15638;DHT22;26604;53.596;10.042;2022-12-18T10:30:42;20.20;97.30
15638;DHT22;26604;53.596;10.042;2022-12-18T10:33:11;20.40;96.60
15638;DHT22;26604;53.596;10.042;2022-12-18T10:35:41;20.60;96.20
15638;DHT22;26604;53.596;10.042;2022-12-18T10:38:22;20.80;95.90
15638;DHT22;26604;53.596;10.042;2022-12-18T10:40:53;21.00;95.40
15638;DHT22;26604;53.596;10.042;2022-12-18T10:43:22;21.20;95.10
15638;DHT22;26604;53.596;10.042;2022-12-18T10:46:00;21.30;94.80
15638;DHT22;26604;53.596;10.042;2022-12-18T10:48:27;21.40;94.60
15638;DHT22;26604;53.596;10.042;2022-12-18T10:50:56;21.50;94.50
15638;DHT22;26604;53.596;10.042;2022-12-18T10:53:25;21.40;94.50
15638;DHT22;26604;53.596;10.042;2022-12-18T10:55:55;21.40;94.70
15638;DHT22;26604;53.596;10.042;2022-12-18T10:58:27;21.30;94.80
15638;DHT22;26604;53.596;10.042;2022-12-18T11:01:07;21.20;95.00
15638;DHT22;26604;53.596;10.042;2022-12-18T11:03:37;21.10;95.10
15638;DHT22;26604;53.596;10.042;2022-12-18T11:06:07;20.90;95.20
15638;DHT22;26604;53.596;10.042;2022-12-18T11:08:34;20.80;94.70
15638;DHT22;26604;53.596;10.042;2022-12-18T11:11:09;20.60;93.90
15638;DHT22;26604;53.596;10.042;2022-12-18T11:13:51;20.40;93.30
15638;DHT22;26604;53.596;10.042;2022-12-18T11:16:20;20.20;92.70
15638;DHT22;26604;53.596;10.042;2022-12-18T11:18:47;20.10;92.30
15638;DHT22;26604;53.596;10.042;2022-12-18T11:21:14;20.00;92.00
15638;DHT22;26604;53.596;10.042;2022-12-18T11:24:19;19.90;91.00
15638;DHT22;26604;53.596;10.042;2022-12-18T11:26:49;19.90;92.70
15638;DHT22;26604;53.596;10.042;2022-12-18T11:29:17;20.20;94.20
15638;DHT22;26604;53.596;10.042;2022-12-18T11:31:44;20.40;93.50
15638;DHT22;26604;53.596;10.042;2022-12-18T11:34:13;20.60;93.70
15638;DHT22;26604;53.596;10.042;2022-12-18T11:36:45;20.80;93.90
15638;DHT22;26604;53.596;10.042;2022-12-18T11:39:15;21.00;93.40
15638;DHT22;26604;53.596;10.042;2022-12-18T11:41:50;21.10;92.90
15638;DHT22;26604;53.596;10.042;2022-12-18T11:44:42;21.20;93.40
15638;DHT22;26604;53.596;10.042;2022-12-18T11:47:13;21.30;93.40
15638;DHT22;26604;53.596;10.042;2022-12-18T11:49:42;21.30;93.60
15638;DHT22;26604;53.596;10.042;2022-12-18T11:52:15;21.40;93.30
15638;DHT22;26604;53.596;10.042;2022-12-18T11:54:43;21.50;93.50
15638;DHT22;26604;53.596;10.042;2022-12-18T11:57:19;21.60;93.00
15638;DHT22;26604;53.596;10.042;2022-12-18T12:00:00;21.70;93.00
15638;DHT22;26604;53.596;10.042;2022-12-18T12:02:39;21.70;93.00
15638;DHT22;26604;53.596;10.042;2022-12-18T12:05:25;21.60;93.10
15638;DHT22;26604;53.596;10.042;2022-12-18T12:07:59;21.60;93.20
15638;DHT22;26604;53.596;10.042;2022-12-18T12:10:36;21.50;93.40
15638;DHT22;26604;53.596;10.042;2022-12-18T12:13:22;21.40;93.60
15638;DHT22;26604;53.596;10.042;2022-12-18T12:15:59;21.40;93.70
15638;DHT22;26604;53.596;10.042;2022-12-18T12:18:35;21.40;93.70
15638;DHT22;26604;53.596;10.042;2022-12-18T12:21:09;21.50;93.70
15638;DHT22;26604;53.596;10.042;2022-12-18T12:23:43;21.50;94.00
15638;DHT22;26604;53.596;10.042;2022-12-18T12:26:17;21.50;93.80
15638;DHT22;26604;53.596;10.042;2022-12-18T12:29:00;21.50;93.80
15638;DHT22;26604;53.596;10.042;2022-12-18T12:31:49;21.50;94.10
15638;DHT22;26604;53.596;10.042;2022-12-18T12:34:23;21.50;93.80
15638;DHT22;26604;53.596;10.042;2022-12-18T12:37:02;21.50;93.70
15638;DHT22;26604;53.596;10.042;2022-12-18T12:39:34;21.50;93.80
15638;DHT22;26604;53.596;10.042;2022-12-18T12:42:02;21.40;93.90
15638;DHT22;26604;53.596;10.042;2022-12-18T12:44:53;21.30;94.10
15638;DHT22;26604;53.596;10.042;2022-12-18T12:47:25;21.20;94.20
15638;DHT22;26604;53.596;10.042;2022-12-18T12:49:54;21.10;94.70
15638;DHT22;26604;53.596;10.042;2022-12-18T12:52:28;21.00;94.70
15638;DHT22;26604;53.596;10.042;2022-12-18T12:54:58;20.80;95.00
15638;DHT22;26604;53.596;10.042;2022-12-18T12:57:30;20.70;95.70
15638;DHT22;26604;53.596;10.042;2022-12-18T13:00:06;20.60;95.70
15638;DHT22;26604;53.596;10.042;2022-12-18T13:02:39;20.50;96.10
15638;DHT22;26604;53.596;10.042;2022-12-18T13:05:16;20.40;96.40
15638;DHT22;26604;53.596;10.042;2022-12-18T13:07:50;20.30;96.70
15638;DHT22;26604;53.596;10.042;2022-12-18T13:10:28;20.20;96.90
15638;DHT22;26604;53.596;10.042;2022-12-18T13:12:59;20.10;97.20
15638;DHT22;26604;53.596;10.042;2022-12-18T13:15:32;20.10;97.40
15638;DHT22;26604;53.596;10.042;2022-12-18T13:18:12;20.00;97.60
15638;DHT22;26604;53.596;10.042;2022-12-18T13:20:42;19.90;97.80
15638;DHT22;26604;53.596;10.042;2022-12-18T13:23:29;19.90;97.90
15638;DHT22;26604;53.596;10.042;2022-12-18T13:25:57;19.90;98.00
15638;DHT22;26604;53.596;10.042;2022-12-18T13:28:51;19.90;98.20
15638;DHT22;26604;53.596;10.042;2022-12-18T13:34:37;19.90;98.20
15638;DHT22;26604;53.596;10.042;2022-12-18T13:37:42;19.90;98.10
15638;DHT22;26604;53.596;10.042;2022-12-18T13:43:35;20.10;97.90
15638;DHT22;26604;53.596;10.042;2022-12-18T13:46:17;20.10;97.90
15638;DHT22;26604;53.596;10.042;2022-12-18T13:49:00;20.20;97.80
15638;DHT22;26604;53.596;10.042;2022-12-18T13:51:32;20.20;97.70
15638;DHT22;26604;53.596;10.042;2022-12-18T13:54:01;20.20;97.60
15638;DHT22;26604;53.596;10.042;2022-12-18T13:56:30;20.20;97.90
15638;DHT22;26604;53.596;10.042;2022-12-18T13:59:16;20.20;97.90
15638;DHT22;26604;53.596;10.042;2022-12-18T14:01:46;20.20;97.60
15638;DHT22;26604;53.596;10.042;2022-12-18T14:04:19;20.20;97.80
15638;DHT22;26604;53.596;10.042;2022-12-18T14:06:50;20.10;97.90
15638;DHT22;26604;53.596;10.042;2022-12-18T14:09:21;20.10;98.00
15638;DHT22;26604;53.596;10.042;2022-12-18T14:11:50;20.00;98.10
15638;DHT22;26604;53.596;10.042;2022-12-18T14:14:18;19.90;98.30
15638;DHT22;26604;53.596;10.042;2022-12-18T14:16:46;19.90;98.50
15638;DHT22;26604;53.596;10.042;2022-12-18T14:19:17;19.80;98.60
15638;DHT22;26604;53.596;10.042;2022-12-18T14:21:49;19.80;98.80
15638;DHT22;26604;53.596;10.042;2022-12-18T14:24:18;19.70;98.90
15638;DHT22;26604;53.596;10.042;2022-12-18T14:26:46;19.70;99.10
15638;DHT22;26604;53.596;10.042;2022-12-18T14:29:25;19.60;99.20
15638;DHT22;26604;53.596;10.042;2022-12-18T14:32:10;19.60;99.40
15638;DHT22;26604;53.596;10.042;2022-12-18T14:34:38;19.60;99.50
15638;DHT22;26604;53.596;10.042;2022-12-18T14:37:09;19.50;99.70
15638;DHT22;26604;53.596;10.042;2022-12-18T14:39:36;19.50;99.80
15638;DHT22;26604;53.596;10.042;2022-12-18T14:42:04;19.40;99.90
15638;DHT22;26604;53.596;10.042;2022-12-18T14:44:31;19.40;99.90
15638;DHT22;26604;53.596;10.042;2022-12-18T14:46:57;19.40;99.90
15638;DHT22;26604;53.596;10.042;2022-12-18T14:49:29;19.40;99.90
15638;DHT22;26604;53.596;10.042;2022-12-18T14:52:00;19.30;99.90
15638;DHT22;26604;53.596;10.042;2022-12-18T14:54:30;19.40;99.90
15638;DHT22;26604;53.596;10.042;2022-12-18T14:57:00;19.40;99.90
15638;DHT22;26604;53.596;10.042;2022-12-18T14:59:28;19.40;99.90
15638;DHT22;26604;53.596;10.042;2022-12-18T15:02:00;19.50;99.90
15638;DHT22;26604;53.596;10.042;2022-12-18T15:04:31;19.60;99.70
15638;DHT22;26604;53.596;10.042;2022-12-18T15:07:19;19.60;99.60
15638;DHT22;26604;53.596;10.042;2022-12-18T15:10:04;19.70;99.40
15638;DHT22;26604;53.596;10.042;2022-12-18T15:12:36;19.70;99.20
15638;DHT22;26604;53.596;10.042;2022-12-18T15:15:04;19.80;99.20
15638;DHT22;26604;53.596;10.042;2022-12-18T15:17:31;19.80;99.10
15638;DHT22;26604;53.596;10.042;2022-12-18T15:20:00;19.80;99.10
15638;DHT22;26604;53.596;10.042;2022-12-18T15:22:29;19.80;99.10
15638;DHT22;26604;53.596;10.042;2022-12-18T15:24:58;19.80;99.10
15638;DHT22;26604;53.596;10.042;2022-12-18T15:27:31;19.80;99.10
15638;DHT22;26604;53.596;10.042;2022-12-18T15:30:19;19.80;99.20
15638;DHT22;26604;53.596;10.042;2022-12-18T15:32:46;19.70;99.30
15638;DHT22;26604;53.596;10.042;2022-12-18T15:35:17;19.70;99.40
15638;DHT22;26604;53.596;10.042;2022-12-18T15:37:44;19.60;99.50
15638;DHT22;26604;53.596;10.042;2022-12-18T15:40:15;19.60;99.60
15638;DHT22;26604;53.596;10.042;2022-12-18T15:42:44;19.60;99.70